sensor_id;sensor_type;location;lat;lon;timestamp;P1;durP1;ratioP1;P2;durP2;ratioP2
51943;SDS011;37969;53.132;6.370;2023-07-22T00:00:59;24.58;;;13.07;;
51943;SDS011;37969;53.132;6.370;2023-07-22T00:03:26;23.63;;;11.52;;
51943;SDS011;37969;53.132;6.370;2023-07-22T00:06:05;26.73;;;11.85;;
51943;SDS011;37969;53.132;6.370;2023-07-22T00:10:58;20.55;;;11.13;;
51943;SDS011;37969;53.132;6.370;2023-07-22T00:13:25;25.23;;;11.73;;
51943;SDS011;37969;53.132;6.370;2023-07-22T00:15:52;23.58;;;11.85;;
51943;SDS011;37969;53.132;6.370;2023-07-22T00:18:19;21.83;;;11.35;;
51943;SDS011;37969;53.132;6.370;2023-07-22T00:20:45;20.35;;;10.43;;
51943;SDS011;37969;53.132;6.370;2023-07-22T00:23:11;25.95;;;11.75;;
51943;SDS011;37969;53.132;6.370;2023-07-22T00:25:37;22.20;;;10.60;;
51943;SDS011;37969;53.132;6.370;2023-07-22T00:28:03;21.02;;;11.25;;
51943;SDS011;37969;53.132;6.370;2023-07-22T00:30:30;15.55;;;9.73;;
51943;SDS011;37969;53.132;6.370;2023-07-22T00:32:56;24.95;;;11.05;;
51943;SDS011;37969;53.132;6.370;2023-07-22T00:35:22;18.30;;;10.40;;
51943;SDS011;37969;53.132;6.370;2023-07-22T00:37:48;20.50;;;10.25;;
51943;SDS011;37969;53.132;6.370;2023-07-22T00:40:15;22.55;;;11.00;;
51943;SDS011;37969;53.132;6.370;2023-07-22T00:42:42;17.85;;;9.80;;
51943;SDS011;37969;53.132;6.370;2023-07-22T00:45:08;20.15;;;10.82;;
51943;SDS011;37969;53.132;6.370;2023-07-22T00:47:35;17.88;;;9.23;;
51943;SDS011;37969;53.132;6.370;2023-07-22T00:50:02;14.93;;;8.57;;
51943;SDS011;37969;53.132;6.370;2023-07-22T00:52:29;19.35;;;8.88;;
51943;SDS011;37969;53.132;6.370;2023-07-22T00:54:55;18.17;;;8.50;;
51943;SDS011;37969;53.132;6.370;2023-07-22T00:57:22;13.75;;;7.75;;
51943;SDS011;37969;53.132;6.370;2023-07-22T00:59:48;16.17;;;8.18;;
51943;SDS011;37969;53.132;6.370;2023-07-22T01:02:14;15.63;;;8.10;;
51943;SDS011;37969;53.132;6.370;2023-07-22T01:04:41;14.32;;;8.10;;
51943;SDS011;37969;53.132;6.370;2023-07-22T01:07:07;14.38;;;7.97;;
51943;SDS011;37969;53.132;6.370;2023-07-22T01:09:36;15.88;;;8.00;;
51943;SDS011;37969;53.132;6.370;2023-07-22T01:12:03;14.73;;;7.50;;
51943;SDS011;37969;53.132;6.370;2023-07-22T01:14:33;14.63;;;7.22;;
51943;SDS011;37969;53.132;6.370;2023-07-22T01:17:00;14.40;;;8.25;;
51943;SDS011;37969;53.132;6.370;2023-07-22T01:19:26;18.27;;;8.30;;
51943;SDS011;37969;53.132;6.370;2023-07-22T01:21:53;12.82;;;7.55;;
51943;SDS011;37969;53.132;6.370;2023-07-22T01:24:20;16.38;;;8.30;;
51943;SDS011;37969;53.132;6.370;2023-07-22T01:26:47;14.75;;;8.32;;
51943;SDS011;37969;53.132;6.370;2023-07-22T01:29:13;16.17;;;8.57;;
51943;SDS011;37969;53.132;6.370;2023-07-22T01:31:40;12.15;;;8.05;;
51943;SDS011;37969;53.132;6.370;2023-07-22T01:34:06;16.85;;;8.35;;
51943;SDS011;37969;53.132;6.370;2023-07-22T01:36:32;14.40;;;7.95;;
51943;SDS011;37969;53.132;6.370;2023-07-22T01:38:58;14.68;;;8.73;;
51943;SDS011;37969;53.132;6.370;2023-07-22T01:41:25;15.73;;;8.55;;
51943;SDS011;37969;53.132;6.370;2023-07-22T01:43:51;13.73;;;8.35;;
51943;SDS011;37969;53.132;6.370;2023-07-22T01:46:18;17.35;;;7.80;;
51943;SDS011;37969;53.132;6.370;2023-07-22T01:48:44;15.43;;;8.40;;
51943;SDS011;37969;53.132;6.370;2023-07-22T01:51:10;18.23;;;8.68;;
51943;SDS011;37969;53.132;6.370;2023-07-22T01:53:36;16.98;;;8.23;;
51943;SDS011;37969;53.132;6.370;2023-07-22T01:56:02;14.25;;;7.97;;
51943;SDS011;37969;53.132;6.370;2023-07-22T01:58:30;19.02;;;9.63;;
51943;SDS011;37969;53.132;6.370;2023-07-22T02:00:56;16.23;;;8.10;;
51943;SDS011;37969;53.132;6.370;2023-07-22T02:03:22;13.90;;;8.18;;
51943;SDS011;37969;53.132;6.370;2023-07-22T02:05:48;14.32;;;7.53;;
51943;SDS011;37969;53.132;6.370;2023-07-22T02:08:14;22.00;;;8.00;;
51943;SDS011;37969;53.132;6.370;2023-07-22T02:10:41;14.50;;;8.45;;
51943;SDS011;37969;53.132;6.370;2023-07-22T02:13:07;12.70;;;7.30;;
51943;SDS011;37969;53.132;6.370;2023-07-22T02:15:34;16.90;;;8.98;;
51943;SDS011;37969;53.132;6.370;2023-07-22T02:18:00;15.30;;;8.18;;
51943;SDS011;37969;53.132;6.370;2023-07-22T02:20:26;20.60;;;8.77;;
51943;SDS011;37969;53.132;6.370;2023-07-22T02:22:54;18.60;;;9.27;;
51943;SDS011;37969;53.132;6.370;2023-07-22T02:25:20;13.57;;;7.75;;
51943;SDS011;37969;53.132;6.370;2023-07-22T02:27:47;16.27;;;7.93;;
51943;SDS011;37969;53.132;6.370;2023-07-22T02:30:13;14.20;;;8.07;;
51943;SDS011;37969;53.132;6.370;2023-07-22T02:32:39;16.98;;;7.97;;
51943;SDS011;37969;53.132;6.370;2023-07-22T02:35:06;15.60;;;8.77;;
51943;SDS011;37969;53.132;6.370;2023-07-22T02:37:33;14.73;;;8.10;;
51943;SDS011;37969;53.132;6.370;2023-07-22T02:40:00;19.23;;;8.15;;
51943;SDS011;37969;53.132;6.370;2023-07-22T02:42:26;22.55;;;9.18;;
51943;SDS011;37969;53.132;6.370;2023-07-22T02:44:52;17.17;;;8.88;;
51943;SDS011;37969;53.132;6.370;2023-07-22T02:47:18;20.75;;;8.32;;
51943;SDS011;37969;53.132;6.370;2023-07-22T02:49:44;13.52;;;8.23;;
51943;SDS011;37969;53.132;6.370;2023-07-22T02:52:10;15.52;;;6.50;;
51943;SDS011;37969;53.132;6.370;2023-07-22T02:54:39;18.15;;;8.02;;
51943;SDS011;37969;53.132;6.370;2023-07-22T02:57:06;13.10;;;7.90;;
51943;SDS011;37969;53.132;6.370;2023-07-22T02:59:32;19.02;;;8.48;;
51943;SDS011;37969;53.132;6.370;2023-07-22T03:01:59;15.20;;;8.75;;
51943;SDS011;37969;53.132;6.370;2023-07-22T03:04:25;19.15;;;9.60;;
51943;SDS011;37969;53.132;6.370;2023-07-22T03:06:51;19.42;;;10.00;;
51943;SDS011;37969;53.132;6.370;2023-07-22T03:09:17;21.55;;;9.68;;
51943;SDS011;37969;53.132;6.370;2023-07-22T03:11:43;20.02;;;10.93;;
51943;SDS011;37969;53.132;6.370;2023-07-22T03:14:09;24.05;;;12.77;;
51943;SDS011;37969;53.132;6.370;2023-07-22T03:16:35;25.70;;;12.77;;
51943;SDS011;37969;53.132;6.370;2023-07-22T03:19:02;29.30;;;13.18;;
51943;SDS011;37969;53.132;6.370;2023-07-22T03:21:28;26.27;;;13.52;;
51943;SDS011;37969;53.132;6.370;2023-07-22T03:23:54;29.60;;;13.85;;
51943;SDS011;37969;53.132;6.370;2023-07-22T03:26:20;27.73;;;12.65;;
51943;SDS011;37969;53.132;6.370;2023-07-22T03:28:46;25.20;;;13.63;;
51943;SDS011;37969;53.132;6.370;2023-07-22T03:31:13;25.98;;;13.20;;
51943;SDS011;37969;53.132;6.370;2023-07-22T03:33:39;24.38;;;11.73;;
51943;SDS011;37969;53.132;6.370;2023-07-22T03:36:06;26.27;;;12.77;;
51943;SDS011;37969;53.132;6.370;2023-07-22T03:38:32;23.67;;;12.07;;
51943;SDS011;37969;53.132;6.370;2023-07-22T03:40:58;23.33;;;12.00;;
51943;SDS011;37969;53.132;6.370;2023-07-22T03:43:24;21.38;;;11.52;;
51943;SDS011;37969;53.132;6.370;2023-07-22T03:45:51;23.48;;;12.10;;
51943;SDS011;37969;53.132;6.370;2023-07-22T03:48:17;23.52;;;12.48;;
51943;SDS011;37969;53.132;6.370;2023-07-22T03:50:43;21.35;;;10.80;;
51943;SDS011;37969;53.132;6.370;2023-07-22T03:53:09;24.73;;;10.60;;
51943;SDS011;37969;53.132;6.370;2023-07-22T03:55:35;18.42;;;10.63;;
51943;SDS011;37969;53.132;6.370;2023-07-22T03:58:01;20.13;;;11.18;;
51943;SDS011;37969;53.132;6.370;2023-07-22T04:00:27;24.23;;;12.38;;
51943;SDS011;37969;53.132;6.370;2023-07-22T04:02:54;17.33;;;11.35;;
51943;SDS011;37969;53.132;6.370;2023-07-22T04:05:20;28.23;;;11.85;;
51943;SDS011;37969;53.132;6.370;2023-07-22T04:07:46;24.38;;;12.07;;
51943;SDS011;37969;53.132;6.370;2023-07-22T04:10:12;19.27;;;11.05;;
51943;SDS011;37969;53.132;6.370;2023-07-22T04:12:40;20.75;;;10.48;;
51943;SDS011;37969;53.132;6.370;2023-07-22T04:15:06;20.42;;;9.90;;
51943;SDS011;37969;53.132;6.370;2023-07-22T04:17:33;17.05;;;10.07;;
51943;SDS011;37969;53.132;6.370;2023-07-22T04:19:59;18.83;;;11.13;;
51943;SDS011;37969;53.132;6.370;2023-07-22T04:22:25;20.30;;;10.75;;
51943;SDS011;37969;53.132;6.370;2023-07-22T04:24:51;19.27;;;11.02;;
51943;SDS011;37969;53.132;6.370;2023-07-22T04:27:17;17.90;;;10.15;;
51943;SDS011;37969;53.132;6.370;2023-07-22T04:29:45;20.40;;;10.82;;
51943;SDS011;37969;53.132;6.370;2023-07-22T04:32:11;17.52;;;10.23;;
51943;SDS011;37969;53.132;6.370;2023-07-22T04:34:38;19.90;;;10.27;;
51943;SDS011;37969;53.132;6.370;2023-07-22T04:37:04;19.52;;;11.00;;
51943;SDS011;37969;53.132;6.370;2023-07-22T04:39:31;16.17;;;11.05;;
51943;SDS011;37969;53.132;6.370;2023-07-22T04:41:58;14.80;;;10.55;;
51943;SDS011;37969;53.132;6.370;2023-07-22T04:44:24;24.35;;;11.18;;
51943;SDS011;37969;53.132;6.370;2023-07-22T04:46:50;20.55;;;10.93;;
51943;SDS011;37969;53.132;6.370;2023-07-22T04:49:16;17.75;;;10.68;;
51943;SDS011;37969;53.132;6.370;2023-07-22T04:51:44;21.20;;;11.48;;
51943;SDS011;37969;53.132;6.370;2023-07-22T04:54:10;17.30;;;10.93;;
51943;SDS011;37969;53.132;6.370;2023-07-22T04:56:37;18.90;;;11.52;;
51943;SDS011;37969;53.132;6.370;2023-07-22T04:59:04;18.00;;;11.02;;
51943;SDS011;37969;53.132;6.370;2023-07-22T05:01:30;19.08;;;11.48;;
51943;SDS011;37969;53.132;6.370;2023-07-22T05:03:56;17.20;;;11.07;;
51943;SDS011;37969;53.132;6.370;2023-07-22T05:06:23;19.83;;;11.57;;
51943;SDS011;37969;53.132;6.370;2023-07-22T05:08:49;17.30;;;11.88;;
51943;SDS011;37969;53.132;6.370;2023-07-22T05:11:15;22.25;;;12.38;;
51943;SDS011;37969;53.132;6.370;2023-07-22T05:13:41;17.83;;;11.35;;
51943;SDS011;37969;53.132;6.370;2023-07-22T05:16:08;17.10;;;10.55;;
51943;SDS011;37969;53.132;6.370;2023-07-22T05:18:34;20.50;;;11.57;;
51943;SDS011;37969;53.132;6.370;2023-07-22T05:21:00;17.85;;;11.93;;
51943;SDS011;37969;53.132;6.370;2023-07-22T05:23:26;21.25;;;12.48;;
51943;SDS011;37969;53.132;6.370;2023-07-22T05:25:52;18.98;;;12.23;;
51943;SDS011;37969;53.132;6.370;2023-07-22T05:28:19;18.58;;;12.48;;
51943;SDS011;37969;53.132;6.370;2023-07-22T05:30:45;18.27;;;11.50;;
51943;SDS011;37969;53.132;6.370;2023-07-22T05:33:11;18.70;;;12.02;;
51943;SDS011;37969;53.132;6.370;2023-07-22T05:35:37;22.77;;;13.25;;
51943;SDS011;37969;53.132;6.370;2023-07-22T05:38:03;18.95;;;11.80;;
51943;SDS011;37969;53.132;6.370;2023-07-22T05:40:31;20.35;;;12.32;;
51943;SDS011;37969;53.132;6.370;2023-07-22T05:42:57;20.50;;;11.93;;
51943;SDS011;37969;53.132;6.370;2023-07-22T05:45:23;21.98;;;12.32;;
51943;SDS011;37969;53.132;6.370;2023-07-22T05:47:49;16.80;;;10.95;;
51943;SDS011;37969;53.132;6.370;2023-07-22T05:50:16;23.42;;;12.65;;
51943;SDS011;37969;53.132;6.370;2023-07-22T05:52:42;23.13;;;12.40;;
51943;SDS011;37969;53.132;6.370;2023-07-22T05:55:09;19.10;;;12.00;;
51943;SDS011;37969;53.132;6.370;2023-07-22T05:57:35;22.05;;;12.52;;
51943;SDS011;37969;53.132;6.370;2023-07-22T06:00:01;22.27;;;13.52;;
51943;SDS011;37969;53.132;6.370;2023-07-22T06:02:28;20.45;;;12.70;;
51943;SDS011;37969;53.132;6.370;2023-07-22T06:04:54;19.45;;;12.88;;
51943;SDS011;37969;53.132;6.370;2023-07-22T06:07:20;20.45;;;12.68;;
51943;SDS011;37969;53.132;6.370;2023-07-22T06:09:46;27.00;;;14.02;;
51943;SDS011;37969;53.132;6.370;2023-07-22T06:12:12;21.17;;;13.23;;
51943;SDS011;37969;53.132;6.370;2023-07-22T06:14:38;23.45;;;14.45;;
51943;SDS011;37969;53.132;6.370;2023-07-22T06:17:05;22.10;;;14.25;;
51943;SDS011;37969;53.132;6.370;2023-07-22T06:19:31;24.20;;;13.88;;
51943;SDS011;37969;53.132;6.370;2023-07-22T06:21:57;20.77;;;13.20;;
51943;SDS011;37969;53.132;6.370;2023-07-22T06:24:23;17.75;;;13.68;;
51943;SDS011;37969;53.132;6.370;2023-07-22T06:26:49;21.52;;;13.25;;
51943;SDS011;37969;53.132;6.370;2023-07-22T06:29:15;24.48;;;13.90;;
51943;SDS011;37969;53.132;6.370;2023-07-22T06:31:42;19.58;;;13.98;;
51943;SDS011;37969;53.132;6.370;2023-07-22T06:34:08;21.70;;;12.95;;
51943;SDS011;37969;53.132;6.370;2023-07-22T06:36:34;19.25;;;13.40;;
51943;SDS011;37969;53.132;6.370;2023-07-22T06:39:00;19.25;;;13.85;;
51943;SDS011;37969;53.132;6.370;2023-07-22T06:41:26;19.17;;;13.20;;
51943;SDS011;37969;53.132;6.370;2023-07-22T06:43:53;21.75;;;12.55;;
51943;SDS011;37969;53.132;6.370;2023-07-22T06:46:19;21.23;;;12.77;;
51943;SDS011;37969;53.132;6.370;2023-07-22T06:48:46;20.00;;;13.13;;
51943;SDS011;37969;53.132;6.370;2023-07-22T06:51:13;26.02;;;14.23;;
51943;SDS011;37969;53.132;6.370;2023-07-22T06:53:39;21.88;;;13.73;;
51943;SDS011;37969;53.132;6.370;2023-07-22T06:56:06;21.95;;;14.85;;
51943;SDS011;37969;53.132;6.370;2023-07-22T06:58:32;22.02;;;15.30;;
51943;SDS011;37969;53.132;6.370;2023-07-22T07:00:58;26.48;;;15.35;;
51943;SDS011;37969;53.132;6.370;2023-07-22T07:03:24;20.38;;;14.48;;
51943;SDS011;37969;53.132;6.370;2023-07-22T07:05:54;20.48;;;14.68;;
51943;SDS011;37969;53.132;6.370;2023-07-22T07:08:21;24.38;;;14.40;;
51943;SDS011;37969;53.132;6.370;2023-07-22T07:10:48;21.90;;;14.70;;
51943;SDS011;37969;53.132;6.370;2023-07-22T07:13:14;21.73;;;14.07;;
51943;SDS011;37969;53.132;6.370;2023-07-22T07:15:40;22.65;;;13.88;;
51943;SDS011;37969;53.132;6.370;2023-07-22T07:18:06;21.33;;;14.48;;
51943;SDS011;37969;53.132;6.370;2023-07-22T07:20:32;19.15;;;14.40;;
51943;SDS011;37969;53.132;6.370;2023-07-22T07:22:59;22.48;;;13.07;;
51943;SDS011;37969;53.132;6.370;2023-07-22T07:25:25;23.08;;;14.27;;
51943;SDS011;37969;53.132;6.370;2023-07-22T07:27:51;23.38;;;14.38;;
51943;SDS011;37969;53.132;6.370;2023-07-22T07:30:17;22.67;;;15.05;;
51943;SDS011;37969;53.132;6.370;2023-07-22T07:32:43;24.05;;;15.00;;
51943;SDS011;37969;53.132;6.370;2023-07-22T07:35:09;20.48;;;14.23;;
51943;SDS011;37969;53.132;6.370;2023-07-22T07:37:36;21.60;;;15.25;;
51943;SDS011;37969;53.132;6.370;2023-07-22T07:40:03;20.85;;;13.80;;
51943;SDS011;37969;53.132;6.370;2023-07-22T07:42:29;20.50;;;14.20;;
51943;SDS011;37969;53.132;6.370;2023-07-22T07:44:55;19.33;;;13.40;;
51943;SDS011;37969;53.132;6.370;2023-07-22T07:47:21;16.13;;;12.13;;
51943;SDS011;37969;53.132;6.370;2023-07-22T07:49:48;17.10;;;12.02;;
51943;SDS011;37969;53.132;6.370;2023-07-22T07:52:14;18.63;;;12.38;;
51943;SDS011;37969;53.132;6.370;2023-07-22T07:54:40;15.70;;;11.57;;
51943;SDS011;37969;53.132;6.370;2023-07-22T07:57:06;16.58;;;12.48;;
51943;SDS011;37969;53.132;6.370;2023-07-22T07:59:32;15.48;;;12.02;;
51943;SDS011;37969;53.132;6.370;2023-07-22T08:01:59;14.82;;;11.80;;
51943;SDS011;37969;53.132;6.370;2023-07-22T08:04:25;17.15;;;11.73;;
51943;SDS011;37969;53.132;6.370;2023-07-22T08:06:51;15.95;;;12.07;;
51943;SDS011;37969;53.132;6.370;2023-07-22T08:09:18;13.68;;;11.05;;
51943;SDS011;37969;53.132;6.370;2023-07-22T08:11:45;21.52;;;12.10;;
51943;SDS011;37969;53.132;6.370;2023-07-22T08:14:11;20.35;;;11.95;;
51943;SDS011;37969;53.132;6.370;2023-07-22T08:16:39;19.25;;;12.10;;
51943;SDS011;37969;53.132;6.370;2023-07-22T08:19:05;16.58;;;11.93;;
51943;SDS011;37969;53.132;6.370;2023-07-22T08:21:31;13.27;;;10.80;;
51943;SDS011;37969;53.132;6.370;2023-07-22T08:23:57;15.13;;;11.00;;
51943;SDS011;37969;53.132;6.370;2023-07-22T08:26:24;13.32;;;11.23;;
51943;SDS011;37969;53.132;6.370;2023-07-22T08:28:50;15.52;;;11.52;;
51943;SDS011;37969;53.132;6.370;2023-07-22T08:31:16;13.73;;;11.07;;
51943;SDS011;37969;53.132;6.370;2023-07-22T08:33:42;15.60;;;9.98;;
51943;SDS011;37969;53.132;6.370;2023-07-22T08:36:09;15.90;;;11.38;;
51943;SDS011;37969;53.132;6.370;2023-07-22T08:38:36;11.95;;;9.93;;
51943;SDS011;37969;53.132;6.370;2023-07-22T08:41:02;18.15;;;10.27;;
51943;SDS011;37969;53.132;6.370;2023-07-22T08:43:28;12.40;;;10.10;;
51943;SDS011;37969;53.132;6.370;2023-07-22T08:45:55;15.63;;;10.20;;
51943;SDS011;37969;53.132;6.370;2023-07-22T08:48:26;16.27;;;10.90;;
51943;SDS011;37969;53.132;6.370;2023-07-22T08:51:02;16.83;;;10.48;;
51943;SDS011;37969;53.132;6.370;2023-07-22T08:53:30;15.23;;;10.95;;
51943;SDS011;37969;53.132;6.370;2023-07-22T08:55:58;14.35;;;11.00;;
51943;SDS011;37969;53.132;6.370;2023-07-22T08:58:25;14.30;;;11.30;;
51943;SDS011;37969;53.132;6.370;2023-07-22T09:00:51;18.63;;;12.20;;
51943;SDS011;37969;53.132;6.370;2023-07-22T09:03:18;15.32;;;11.00;;
51943;SDS011;37969;53.132;6.370;2023-07-22T09:05:45;17.20;;;11.45;;
51943;SDS011;37969;53.132;6.370;2023-07-22T09:08:11;16.27;;;10.73;;
51943;SDS011;37969;53.132;6.370;2023-07-22T09:10:37;22.55;;;11.57;;
51943;SDS011;37969;53.132;6.370;2023-07-22T09:13:04;27.85;;;14.55;;
51943;SDS011;37969;53.132;6.370;2023-07-22T09:15:31;30.27;;;14.40;;
51943;SDS011;37969;53.132;6.370;2023-07-22T09:17:58;21.58;;;13.65;;
51943;SDS011;37969;53.132;6.370;2023-07-22T09:20:24;22.35;;;14.50;;
51943;SDS011;37969;53.132;6.370;2023-07-22T09:22:51;23.13;;;14.18;;
51943;SDS011;37969;53.132;6.370;2023-07-22T09:25:18;21.75;;;14.43;;
51943;SDS011;37969;53.132;6.370;2023-07-22T09:27:45;21.20;;;14.27;;
51943;SDS011;37969;53.132;6.370;2023-07-22T09:32:48;18.20;;;13.18;;
51943;SDS011;37969;53.132;6.370;2023-07-22T09:35:14;17.13;;;11.73;;
51943;SDS011;37969;53.132;6.370;2023-07-22T09:37:40;18.38;;;13.00;;
51943;SDS011;37969;53.132;6.370;2023-07-22T09:42:44;18.63;;;13.60;;
51943;SDS011;37969;53.132;6.370;2023-07-22T09:45:10;21.48;;;13.68;;
51943;SDS011;37969;53.132;6.370;2023-07-22T09:47:40;18.35;;;13.07;;
51943;SDS011;37969;53.132;6.370;2023-07-22T09:50:08;21.75;;;13.35;;
51943;SDS011;37969;53.132;6.370;2023-07-22T09:52:40;18.25;;;12.27;;
51943;SDS011;37969;53.132;6.370;2023-07-22T09:55:06;20.90;;;13.15;;
51943;SDS011;37969;53.132;6.370;2023-07-22T09:57:33;16.95;;;11.93;;
51943;SDS011;37969;53.132;6.370;2023-07-22T10:00:00;16.35;;;11.48;;
51943;SDS011;37969;53.132;6.370;2023-07-22T10:02:27;19.52;;;12.88;;
51943;SDS011;37969;53.132;6.370;2023-07-22T10:04:54;17.83;;;12.05;;
51943;SDS011;37969;53.132;6.370;2023-07-22T10:07:23;17.52;;;11.65;;
51943;SDS011;37969;53.132;6.370;2023-07-22T10:09:51;14.15;;;10.50;;
51943;SDS011;37969;53.132;6.370;2023-07-22T10:12:20;16.13;;;9.50;;
51943;SDS011;37969;53.132;6.370;2023-07-22T10:14:46;13.88;;;9.73;;
51943;SDS011;37969;53.132;6.370;2023-07-22T10:17:14;9.80;;;8.52;;
51943;SDS011;37969;53.132;6.370;2023-07-22T10:19:41;10.63;;;8.27;;
51943;SDS011;37969;53.132;6.370;2023-07-22T10:22:09;8.75;;;7.82;;
51943;SDS011;37969;53.132;6.370;2023-07-22T10:24:35;11.73;;;7.85;;
51943;SDS011;37969;53.132;6.370;2023-07-22T10:27:02;13.23;;;8.50;;
51943;SDS011;37969;53.132;6.370;2023-07-22T10:29:28;11.75;;;7.35;;
51943;SDS011;37969;53.132;6.370;2023-07-22T10:31:55;8.80;;;7.07;;
51943;SDS011;37969;53.132;6.370;2023-07-22T10:34:24;11.75;;;7.72;;
51943;SDS011;37969;53.132;6.370;2023-07-22T10:36:50;12.10;;;8.57;;
51943;SDS011;37969;53.132;6.370;2023-07-22T10:39:26;10.30;;;7.90;;
51943;SDS011;37969;53.132;6.370;2023-07-22T10:42:00;9.85;;;8.13;;
51943;SDS011;37969;53.132;6.370;2023-07-22T10:44:30;12.82;;;9.07;;
51943;SDS011;37969;53.132;6.370;2023-07-22T10:46:58;10.10;;;8.45;;
51943;SDS011;37969;53.132;6.370;2023-07-22T10:49:24;10.77;;;8.10;;
51943;SDS011;37969;53.132;6.370;2023-07-22T10:51:56;10.77;;;8.68;;
51943;SDS011;37969;53.132;6.370;2023-07-22T10:54:31;12.65;;;8.95;;
51943;SDS011;37969;53.132;6.370;2023-07-22T10:57:02;14.15;;;8.25;;
51943;SDS011;37969;53.132;6.370;2023-07-22T10:59:29;11.40;;;8.85;;
51943;SDS011;37969;53.132;6.370;2023-07-22T11:01:59;16.33;;;7.95;;
51943;SDS011;37969;53.132;6.370;2023-07-22T11:04:26;10.38;;;8.75;;
51943;SDS011;37969;53.132;6.370;2023-07-22T11:06:57;10.38;;;8.70;;
51943;SDS011;37969;53.132;6.370;2023-07-22T11:11:54;9.05;;;7.82;;
51943;SDS011;37969;53.132;6.370;2023-07-22T11:14:22;9.68;;;7.68;;
51943;SDS011;37969;53.132;6.370;2023-07-22T11:16:49;10.32;;;8.20;;
51943;SDS011;37969;53.132;6.370;2023-07-22T11:19:16;11.20;;;8.80;;
51943;SDS011;37969;53.132;6.370;2023-07-22T11:21:43;11.48;;;8.80;;
51943;SDS011;37969;53.132;6.370;2023-07-22T11:24:09;11.50;;;9.23;;
51943;SDS011;37969;53.132;6.370;2023-07-22T11:26:36;13.07;;;10.68;;
51943;SDS011;37969;53.132;6.370;2023-07-22T11:29:03;11.93;;;9.90;;
51943;SDS011;37969;53.132;6.370;2023-07-22T11:31:30;14.13;;;9.98;;
51943;SDS011;37969;53.132;6.370;2023-07-22T11:33:56;11.50;;;9.93;;
51943;SDS011;37969;53.132;6.370;2023-07-22T11:36:23;12.38;;;10.38;;
51943;SDS011;37969;53.132;6.370;2023-07-22T11:38:49;14.18;;;10.50;;
51943;SDS011;37969;53.132;6.370;2023-07-22T11:41:15;13.82;;;10.88;;
51943;SDS011;37969;53.132;6.370;2023-07-22T11:43:41;15.82;;;12.55;;
51943;SDS011;37969;53.132;6.370;2023-07-22T11:46:07;17.88;;;11.52;;
51943;SDS011;37969;53.132;6.370;2023-07-22T11:48:34;16.70;;;12.35;;
51943;SDS011;37969;53.132;6.370;2023-07-22T11:51:00;15.30;;;11.57;;
51943;SDS011;37969;53.132;6.370;2023-07-22T11:53:26;15.65;;;12.32;;
51943;SDS011;37969;53.132;6.370;2023-07-22T11:55:54;14.98;;;12.18;;
51943;SDS011;37969;53.132;6.370;2023-07-22T11:58:24;15.80;;;12.90;;
51943;SDS011;37969;53.132;6.370;2023-07-22T12:01:06;16.95;;;12.93;;
51943;SDS011;37969;53.132;6.370;2023-07-22T12:03:33;17.35;;;14.95;;
51943;SDS011;37969;53.132;6.370;2023-07-22T12:06:00;18.60;;;15.00;;
51943;SDS011;37969;53.132;6.370;2023-07-22T12:08:28;17.30;;;15.25;;
51943;SDS011;37969;53.132;6.370;2023-07-22T12:10:56;22.17;;;17.17;;
51943;SDS011;37969;53.132;6.370;2023-07-22T12:13:22;16.75;;;14.77;;
51943;SDS011;37969;53.132;6.370;2023-07-22T12:15:59;20.88;;;16.23;;
51943;SDS011;37969;53.132;6.370;2023-07-22T12:18:26;20.70;;;16.92;;
51943;SDS011;37969;53.132;6.370;2023-07-22T12:20:56;20.25;;;16.75;;
51943;SDS011;37969;53.132;6.370;2023-07-22T12:23:23;19.25;;;15.70;;
51943;SDS011;37969;53.132;6.370;2023-07-22T12:25:49;19.25;;;15.65;;
51943;SDS011;37969;53.132;6.370;2023-07-22T12:28:15;16.35;;;14.60;;
51943;SDS011;37969;53.132;6.370;2023-07-22T12:30:41;17.52;;;14.68;;
51943;SDS011;37969;53.132;6.370;2023-07-22T12:33:07;17.25;;;14.10;;
51943;SDS011;37969;53.132;6.370;2023-07-22T12:35:33;19.90;;;14.00;;
51943;SDS011;37969;53.132;6.370;2023-07-22T12:38:00;18.70;;;14.93;;
51943;SDS011;37969;53.132;6.370;2023-07-22T12:40:26;17.58;;;14.25;;
51943;SDS011;37969;53.132;6.370;2023-07-22T12:42:52;16.77;;;14.60;;
51943;SDS011;37969;53.132;6.370;2023-07-22T12:45:18;19.10;;;15.65;;
51943;SDS011;37969;53.132;6.370;2023-07-22T12:47:45;19.33;;;14.43;;
51943;SDS011;37969;53.132;6.370;2023-07-22T12:50:11;17.17;;;14.02;;
51943;SDS011;37969;53.132;6.370;2023-07-22T12:52:37;16.77;;;14.15;;
51943;SDS011;37969;53.132;6.370;2023-07-22T12:55:03;16.67;;;12.93;;
51943;SDS011;37969;53.132;6.370;2023-07-22T12:57:30;16.52;;;13.00;;
51943;SDS011;37969;53.132;6.370;2023-07-22T12:59:56;13.88;;;12.43;;
51943;SDS011;37969;53.132;6.370;2023-07-22T13:02:22;14.35;;;12.13;;
51943;SDS011;37969;53.132;6.370;2023-07-22T13:04:48;14.98;;;12.05;;
51943;SDS011;37969;53.132;6.370;2023-07-22T13:07:14;12.60;;;10.95;;
51943;SDS011;37969;53.132;6.370;2023-07-22T13:09:40;14.60;;;11.38;;
51943;SDS011;37969;53.132;6.370;2023-07-22T13:12:08;13.48;;;11.23;;
51943;SDS011;37969;53.132;6.370;2023-07-22T13:14:34;12.20;;;11.00;;
51943;SDS011;37969;53.132;6.370;2023-07-22T13:17:00;15.35;;;11.45;;
51943;SDS011;37969;53.132;6.370;2023-07-22T13:19:27;13.02;;;11.10;;
51943;SDS011;37969;53.132;6.370;2023-07-22T13:21:53;12.13;;;10.45;;
51943;SDS011;37969;53.132;6.370;2023-07-22T13:24:21;15.40;;;12.88;;
51943;SDS011;37969;53.132;6.370;2023-07-22T13:26:47;17.00;;;15.05;;
51943;SDS011;37969;53.132;6.370;2023-07-22T13:29:13;15.13;;;13.57;;
51943;SDS011;37969;53.132;6.370;2023-07-22T13:31:39;15.80;;;13.95;;
51943;SDS011;37969;53.132;6.370;2023-07-22T15:52:57;10.50;;;5.40;;
51943;SDS011;37969;53.132;6.370;2023-07-22T16:19:46;10.70;;;6.40;;
51943;SDS011;37969;53.132;6.370;2023-07-22T16:22:12;8.98;;;5.97;;
51943;SDS011;37969;53.132;6.370;2023-07-22T16:24:38;11.75;;;6.07;;
51943;SDS011;37969;53.132;6.370;2023-07-22T16:27:04;11.82;;;6.25;;
51943;SDS011;37969;53.132;6.370;2023-07-22T16:29:31;11.40;;;6.53;;
51943;SDS011;37969;53.132;6.370;2023-07-22T16:31:57;8.52;;;5.60;;
51943;SDS011;37969;53.132;6.370;2023-07-22T16:34:23;8.68;;;5.35;;
51943;SDS011;37969;53.132;6.370;2023-07-22T16:36:49;12.40;;;5.95;;
51943;SDS011;37969;53.132;6.370;2023-07-22T16:39:15;8.20;;;5.82;;
51943;SDS011;37969;53.132;6.370;2023-07-22T16:41:42;10.10;;;5.40;;
51943;SDS011;37969;53.132;6.370;2023-07-22T16:44:08;11.85;;;5.78;;
51943;SDS011;37969;53.132;6.370;2023-07-22T16:46:34;10.20;;;5.65;;
51943;SDS011;37969;53.132;6.370;2023-07-22T16:49:00;10.05;;;5.82;;
51943;SDS011;37969;53.132;6.370;2023-07-22T16:51:26;7.03;;;5.47;;
51943;SDS011;37969;53.132;6.370;2023-07-22T16:53:53;14.10;;;6.00;;
51943;SDS011;37969;53.132;6.370;2023-07-22T16:56:19;9.15;;;5.38;;
51943;SDS011;37969;53.132;6.370;2023-07-22T16:58:45;10.55;;;6.22;;
51943;SDS011;37969;53.132;6.370;2023-07-22T17:01:11;9.65;;;5.47;;
51943;SDS011;37969;53.132;6.370;2023-07-22T17:03:38;11.50;;;6.07;;
51943;SDS011;37969;53.132;6.370;2023-07-22T17:06:04;14.60;;;5.97;;
51943;SDS011;37969;53.132;6.370;2023-07-22T17:08:35;12.10;;;6.50;;
51943;SDS011;37969;53.132;6.370;2023-07-22T17:11:01;11.27;;;6.38;;
51943;SDS011;37969;53.132;6.370;2023-07-22T17:13:28;12.40;;;6.45;;
51943;SDS011;37969;53.132;6.370;2023-07-22T17:15:54;10.93;;;6.72;;